sensor_id;sensor_type;location;lat;lon;timestamp;temperature;humidity
48860;DHT22;34679;51.436;-2.518;2022-07-29T00:00:12;15.90;99.90
48860;DHT22;34679;51.436;-2.518;2022-07-29T00:02:38;15.90;99.90
48860;DHT22;34679;51.436;-2.518;2022-07-29T00:05:04;15.80;99.90
48860;DHT22;34679;51.436;-2.518;2022-07-29T00:07:30;15.80;99.90
48860;DHT22;34679;51.436;-2.518;2022-07-29T00:09:56;15.80;99.90
48860;DHT22;34679;51.436;-2.518;2022-07-29T00:12:23;15.80;99.90
48860;DHT22;34679;51.436;-2.518;2022-07-29T00:14:49;15.70;99.90
48860;DHT22;34679;51.436;-2.518;2022-07-29T00:17:14;15.70;99.90
48860;DHT22;34679;51.436;-2.518;2022-07-29T00:19:40;15.70;99.90
48860;DHT22;34679;51.436;-2.518;2022-07-29T00:22:05;15.60;99.90
48860;DHT22;34679;51.436;-2.518;2022-07-29T00:24:31;15.50;99.90
48860;DHT22;34679;51.436;-2.518;2022-07-29T00:26:56;15.60;99.90
48860;DHT22;34679;51.436;-2.518;2022-07-29T00:29:22;15.50;99.90
48860;DHT22;34679;51.436;-2.518;2022-07-29T00:31:48;15.50;99.90
48860;DHT22;34679;51.436;-2.518;2022-07-29T00:34:13;15.40;99.90
48860;DHT22;34679;51.436;-2.518;2022-07-29T00:36:57;15.40;99.90
48860;DHT22;34679;51.436;-2.518;2022-07-29T00:39:23;15.40;99.90
48860;DHT22;34679;51.436;-2.518;2022-07-29T00:41:49;15.40;99.90
48860;DHT22;34679;51.436;-2.518;2022-07-29T00:44:14;15.40;99.90
48860;DHT22;34679;51.436;-2.518;2022-07-29T00:46:40;15.40;99.90
48860;DHT22;34679;51.436;-2.518;2022-07-29T00:49:06;15.40;99.90
48860;DHT22;34679;51.436;-2.518;2022-07-29T00:51:34;15.40;99.90
48860;DHT22;34679;51.436;-2.518;2022-07-29T00:54:01;15.40;99.90
48860;DHT22;34679;51.436;-2.518;2022-07-29T00:56:26;15.30;99.90
48860;DHT22;34679;51.436;-2.518;2022-07-29T00:58:54;15.30;99.90
48860;DHT22;34679;51.436;-2.518;2022-07-29T01:01:21;15.30;99.90
48860;DHT22;34679;51.436;-2.518;2022-07-29T01:03:47;15.30;99.90
48860;DHT22;34679;51.436;-2.518;2022-07-29T01:06:12;15.20;99.90
48860;DHT22;34679;51.436;-2.518;2022-07-29T01:08:38;15.20;99.90
48860;DHT22;34679;51.436;-2.518;2022-07-29T01:11:04;15.30;99.90
48860;DHT22;34679;51.436;-2.518;2022-07-29T01:13:29;15.20;99.90
48860;DHT22;34679;51.436;-2.518;2022-07-29T01:15:59;15.20;99.90
48860;DHT22;34679;51.436;-2.518;2022-07-29T01:18:30;15.10;99.90
48860;DHT22;34679;51.436;-2.518;2022-07-29T01:23:59;15.10;99.90
48860;DHT22;34679;51.436;-2.518;2022-07-29T01:29:06;15.10;99.90
48860;DHT22;34679;51.436;-2.518;2022-07-29T01:31:42;15.10;99.90
48860;DHT22;34679;51.436;-2.518;2022-07-29T01:34:10;15.10;99.90
48860;DHT22;34679;51.436;-2.518;2022-07-29T01:36:47;15.10;99.90
48860;DHT22;34679;51.436;-2.518;2022-07-29T01:39:16;15.10;99.90
48860;DHT22;34679;51.436;-2.518;2022-07-29T01:42:29;15.10;99.90
48860;DHT22;34679;51.436;-2.518;2022-07-29T01:44:33;15.10;99.90
48860;DHT22;34679;51.436;-2.518;2022-07-29T01:47:01;15.10;99.90
48860;DHT22;34679;51.436;-2.518;2022-07-29T01:49:28;15.10;99.90
48860;DHT22;34679;51.436;-2.518;2022-07-29T01:51:59;15.10;99.90
48860;DHT22;34679;51.436;-2.518;2022-07-29T01:54:30;15.00;99.90
48860;DHT22;34679;51.436;-2.518;2022-07-29T01:56:57;15.00;99.90
48860;DHT22;34679;51.436;-2.518;2022-07-29T01:59:24;15.10;99.90
48860;DHT22;34679;51.436;-2.518;2022-07-29T02:01:50;15.10;99.90
48860;DHT22;34679;51.436;-2.518;2022-07-29T02:04:17;15.10;99.90
48860;DHT22;34679;51.436;-2.518;2022-07-29T02:06:44;15.10;99.90
48860;DHT22;34679;51.436;-2.518;2022-07-29T02:09:10;15.00;99.90
48860;DHT22;34679;51.436;-2.518;2022-07-29T02:11:37;15.00;99.90
48860;DHT22;34679;51.436;-2.518;2022-07-29T02:14:03;15.00;99.90
48860;DHT22;34679;51.436;-2.518;2022-07-29T02:16:30;14.40;99.90
48860;DHT22;34679;51.436;-2.518;2022-07-29T02:18:56;15.00;99.90
48860;DHT22;34679;51.436;-2.518;2022-07-29T02:21:24;14.90;99.90
48860;DHT22;34679;51.436;-2.518;2022-07-29T02:23:50;14.90;99.90
48860;DHT22;34679;51.436;-2.518;2022-07-29T02:26:16;14.90;99.90
48860;DHT22;34679;51.436;-2.518;2022-07-29T02:28:42;14.80;99.90
48860;DHT22;34679;51.436;-2.518;2022-07-29T02:31:08;14.80;99.90
48860;DHT22;34679;51.436;-2.518;2022-07-29T02:33:34;14.80;99.90
48860;DHT22;34679;51.436;-2.518;2022-07-29T02:36:00;14.70;99.90
48860;DHT22;34679;51.436;-2.518;2022-07-29T02:38:27;14.70;99.90
48860;DHT22;34679;51.436;-2.518;2022-07-29T02:41:13;14.60;99.90
48860;DHT22;34679;51.436;-2.518;2022-07-29T02:43:40;14.50;99.90
48860;DHT22;34679;51.436;-2.518;2022-07-29T02:46:08;14.40;99.90
48860;DHT22;34679;51.436;-2.518;2022-07-29T02:48:55;14.40;99.90
48860;DHT22;34679;51.436;-2.518;2022-07-29T02:51:23;14.30;99.90
48860;DHT22;34679;51.436;-2.518;2022-07-29T02:53:51;14.20;99.90
48860;DHT22;34679;51.436;-2.518;2022-07-29T02:56:19;14.20;99.90
48860;DHT22;34679;51.436;-2.518;2022-07-29T02:58:54;14.20;99.90
48860;DHT22;34679;51.436;-2.518;2022-07-29T03:01:22;14.10;99.90
48860;DHT22;34679;51.436;-2.518;2022-07-29T03:03:48;14.00;99.90
48860;DHT22;34679;51.436;-2.518;2022-07-29T03:06:14;13.90;99.90
48860;DHT22;34679;51.436;-2.518;2022-07-29T03:08:40;13.80;99.90
48860;DHT22;34679;51.436;-2.518;2022-07-29T03:11:07;13.80;99.90
48860;DHT22;34679;51.436;-2.518;2022-07-29T03:13:33;13.70;99.90
48860;DHT22;34679;51.436;-2.518;2022-07-29T03:16:00;13.70;99.90
48860;DHT22;34679;51.436;-2.518;2022-07-29T03:18:26;13.60;99.90
48860;DHT22;34679;51.436;-2.518;2022-07-29T03:20:52;13.20;99.90
48860;DHT22;34679;51.436;-2.518;2022-07-29T03:23:18;13.50;99.90
48860;DHT22;34679;51.436;-2.518;2022-07-29T03:25:44;13.50;99.90
48860;DHT22;34679;51.436;-2.518;2022-07-29T03:28:10;13.50;99.90
48860;DHT22;34679;51.436;-2.518;2022-07-29T03:30:35;13.50;99.90
48860;DHT22;34679;51.436;-2.518;2022-07-29T03:33:01;13.50;99.90
48860;DHT22;34679;51.436;-2.518;2022-07-29T03:35:26;13.40;99.90
48860;DHT22;34679;51.436;-2.518;2022-07-29T03:37:52;13.50;99.90
48860;DHT22;34679;51.436;-2.518;2022-07-29T03:40:40;13.50;99.90
48860;DHT22;34679;51.436;-2.518;2022-07-29T03:43:03;13.60;99.90
48860;DHT22;34679;51.436;-2.518;2022-07-29T03:45:30;13.50;99.90
48860;DHT22;34679;51.436;-2.518;2022-07-29T03:47:59;13.50;99.90
48860;DHT22;34679;51.436;-2.518;2022-07-29T03:50:25;13.60;99.90
48860;DHT22;34679;51.436;-2.518;2022-07-29T03:52:50;13.60;99.90
48860;DHT22;34679;51.436;-2.518;2022-07-29T03:55:16;13.70;99.90
48860;DHT22;34679;51.436;-2.518;2022-07-29T03:57:43;13.60;99.90
48860;DHT22;34679;51.436;-2.518;2022-07-29T04:00:09;13.60;99.90
48860;DHT22;34679;51.436;-2.518;2022-07-29T04:02:36;13.50;99.90
48860;DHT22;34679;51.436;-2.518;2022-07-29T04:05:01;13.50;99.90
48860;DHT22;34679;51.436;-2.518;2022-07-29T04:07:27;13.50;99.90
48860;DHT22;34679;51.436;-2.518;2022-07-29T04:09:53;13.40;99.90
48860;DHT22;34679;51.436;-2.518;2022-07-29T04:12:18;13.40;99.90
48860;DHT22;34679;51.436;-2.518;2022-07-29T04:14:44;13.30;99.90
48860;DHT22;34679;51.436;-2.518;2022-07-29T04:17:09;13.30;99.90
48860;DHT22;34679;51.436;-2.518;2022-07-29T04:19:35;13.20;99.90
48860;DHT22;34679;51.436;-2.518;2022-07-29T04:22:00;13.20;99.90
48860;DHT22;34679;51.436;-2.518;2022-07-29T04:24:26;13.10;99.90
48860;DHT22;34679;51.436;-2.518;2022-07-29T04:26:52;13.10;99.90
48860;DHT22;34679;51.436;-2.518;2022-07-29T04:29:18;13.10;99.90
48860;DHT22;34679;51.436;-2.518;2022-07-29T04:31:43;13.00;99.90
48860;DHT22;34679;51.436;-2.518;2022-07-29T04:34:09;13.00;99.90
48860;DHT22;34679;51.436;-2.518;2022-07-29T04:36:35;13.00;99.90
48860;DHT22;34679;51.436;-2.518;2022-07-29T04:39:01;13.00;99.90
48860;DHT22;34679;51.436;-2.518;2022-07-29T04:41:27;13.00;99.90
48860;DHT22;34679;51.436;-2.518;2022-07-29T04:43:52;12.90;99.90
48860;DHT22;34679;51.436;-2.518;2022-07-29T04:46:18;12.90;99.90
48860;DHT22;34679;51.436;-2.518;2022-07-29T04:48:47;12.90;99.90
48860;DHT22;34679;51.436;-2.518;2022-07-29T04:51:13;12.90;99.90
48860;DHT22;34679;51.436;-2.518;2022-07-29T04:53:39;13.00;99.90
48860;DHT22;34679;51.436;-2.518;2022-07-29T04:56:04;12.90;99.90
48860;DHT22;34679;51.436;-2.518;2022-07-29T04:58:30;13.00;99.90
48860;DHT22;34679;51.436;-2.518;2022-07-29T05:00:56;13.00;99.90
48860;DHT22;34679;51.436;-2.518;2022-07-29T05:03:21;13.00;99.90
48860;DHT22;34679;51.436;-2.518;2022-07-29T05:05:47;13.00;99.90
48860;DHT22;34679;51.436;-2.518;2022-07-29T05:08:12;13.00;99.90
48860;DHT22;34679;51.436;-2.518;2022-07-29T05:10:38;13.00;99.90
48860;DHT22;34679;51.436;-2.518;2022-07-29T05:13:04;13.10;99.90
48860;DHT22;34679;51.436;-2.518;2022-07-29T05:15:31;13.20;99.90
48860;DHT22;34679;51.436;-2.518;2022-07-29T05:17:56;13.40;99.90
48860;DHT22;34679;51.436;-2.518;2022-07-29T05:20:22;13.70;99.90
48860;DHT22;34679;51.436;-2.518;2022-07-29T05:22:51;14.40;99.90
48860;DHT22;34679;51.436;-2.518;2022-07-29T05:25:17;15.20;99.90
48860;DHT22;34679;51.436;-2.518;2022-07-29T05:27:43;15.90;99.90
48860;DHT22;34679;51.436;-2.518;2022-07-29T05:30:08;16.70;99.90
48860;DHT22;34679;51.436;-2.518;2022-07-29T05:32:34;17.50;99.90
48860;DHT22;34679;51.436;-2.518;2022-07-29T05:35:00;18.30;99.90
48860;DHT22;34679;51.436;-2.518;2022-07-29T05:37:25;19.00;99.90
48860;DHT22;34679;51.436;-2.518;2022-07-29T05:39:51;19.70;99.90
48860;DHT22;34679;51.436;-2.518;2022-07-29T05:42:16;20.30;99.90
48860;DHT22;34679;51.436;-2.518;2022-07-29T05:44:42;20.90;99.90
48860;DHT22;34679;51.436;-2.518;2022-07-29T05:47:07;21.30;99.90
48860;DHT22;34679;51.436;-2.518;2022-07-29T05:49:33;21.70;99.90
48860;DHT22;34679;51.436;-2.518;2022-07-29T05:51:59;22.10;99.90
48860;DHT22;34679;51.436;-2.518;2022-07-29T05:54:25;22.60;99.90
48860;DHT22;34679;51.436;-2.518;2022-07-29T05:56:50;23.00;99.20
48860;DHT22;34679;51.436;-2.518;2022-07-29T05:59:16;23.30;98.50
48860;DHT22;34679;51.436;-2.518;2022-07-29T06:01:42;23.30;98.60
48860;DHT22;34679;51.436;-2.518;2022-07-29T06:04:07;23.40;98.40
48860;DHT22;34679;51.436;-2.518;2022-07-29T06:06:33;23.80;98.00
48860;DHT22;34679;51.436;-2.518;2022-07-29T06:08:59;24.30;97.50
48860;DHT22;34679;51.436;-2.518;2022-07-29T06:11:25;24.90;96.60
48860;DHT22;34679;51.436;-2.518;2022-07-29T06:13:51;25.10;96.20
48860;DHT22;34679;51.436;-2.518;2022-07-29T06:16:16;25.50;95.80
48860;DHT22;34679;51.436;-2.518;2022-07-29T06:18:42;25.80;95.50
48860;DHT22;34679;51.436;-2.518;2022-07-29T06:21:08;25.80;95.20
48860;DHT22;34679;51.436;-2.518;2022-07-29T06:23:35;26.30;94.90
48860;DHT22;34679;51.436;-2.518;2022-07-29T06:26:01;26.80;94.40
48860;DHT22;34679;51.436;-2.518;2022-07-29T06:28:27;27.30;93.90
48860;DHT22;34679;51.436;-2.518;2022-07-29T06:30:53;28.00;93.30
48860;DHT22;34679;51.436;-2.518;2022-07-29T06:33:19;27.90;93.20
48860;DHT22;34679;51.436;-2.518;2022-07-29T06:35:44;28.00;93.20
48860;DHT22;34679;51.436;-2.518;2022-07-29T06:38:12;28.30;93.00
48860;DHT22;34679;51.436;-2.518;2022-07-29T06:40:44;28.90;92.70
48860;DHT22;34679;51.436;-2.518;2022-07-29T06:43:25;28.60;93.00
48860;DHT22;34679;51.436;-2.518;2022-07-29T06:45:52;28.30;93.10
48860;DHT22;34679;51.436;-2.518;2022-07-29T06:48:17;28.20;93.40
48860;DHT22;34679;51.436;-2.518;2022-07-29T06:50:43;28.50;92.90
48860;DHT22;34679;51.436;-2.518;2022-07-29T06:53:08;28.40;93.10
48860;DHT22;34679;51.436;-2.518;2022-07-29T06:55:34;28.30;93.20
48860;DHT22;34679;51.436;-2.518;2022-07-29T06:57:59;28.40;93.10
48860;DHT22;34679;51.436;-2.518;2022-07-29T07:00:25;28.70;93.10
48860;DHT22;34679;51.436;-2.518;2022-07-29T07:02:51;28.80;92.90
48860;DHT22;34679;51.436;-2.518;2022-07-29T07:05:16;29.20;92.60
48860;DHT22;34679;51.436;-2.518;2022-07-29T07:07:42;29.40;92.40
48860;DHT22;34679;51.436;-2.518;2022-07-29T07:10:07;29.40;92.40
48860;DHT22;34679;51.436;-2.518;2022-07-29T07:12:33;29.50;92.40
48860;DHT22;34679;51.436;-2.518;2022-07-29T07:14:58;29.60;92.20
48860;DHT22;34679;51.436;-2.518;2022-07-29T07:17:24;30.20;92.10
48860;DHT22;34679;51.436;-2.518;2022-07-29T07:19:50;30.90;91.60
48860;DHT22;34679;51.436;-2.518;2022-07-29T07:22:15;30.60;91.60
48860;DHT22;34679;51.436;-2.518;2022-07-29T07:24:41;30.40;91.80
48860;DHT22;34679;51.436;-2.518;2022-07-29T07:27:06;30.10;91.70
48860;DHT22;34679;51.436;-2.518;2022-07-29T07:29:32;30.70;91.40
48860;DHT22;34679;51.436;-2.518;2022-07-29T07:31:58;31.60;90.80
48860;DHT22;34679;51.436;-2.518;2022-07-29T07:34:23;31.40;91.00
48860;DHT22;34679;51.436;-2.518;2022-07-29T07:36:49;31.20;90.90
48860;DHT22;34679;51.436;-2.518;2022-07-29T07:39:14;31.60;90.60
48860;DHT22;34679;51.436;-2.518;2022-07-29T07:41:40;31.60;90.90
48860;DHT22;34679;51.436;-2.518;2022-07-29T07:44:06;31.20;90.70
48860;DHT22;34679;51.436;-2.518;2022-07-29T07:46:31;31.20;90.60
48860;DHT22;34679;51.436;-2.518;2022-07-29T07:48:57;31.10;91.00
48860;DHT22;34679;51.436;-2.518;2022-07-29T07:51:24;31.30;91.00
48860;DHT22;34679;51.436;-2.518;2022-07-29T07:53:49;32.00;90.20
48860;DHT22;34679;51.436;-2.518;2022-07-29T07:56:15;31.80;90.10
48860;DHT22;34679;51.436;-2.518;2022-07-29T07:58:41;31.50;90.40
48860;DHT22;34679;51.436;-2.518;2022-07-29T08:01:07;31.90;90.50
48860;DHT22;34679;51.436;-2.518;2022-07-29T08:03:33;31.90;90.00
48860;DHT22;34679;51.436;-2.518;2022-07-29T08:05:59;31.60;90.40
48860;DHT22;34679;51.436;-2.518;2022-07-29T08:08:24;31.60;90.40
48860;DHT22;34679;51.436;-2.518;2022-07-29T08:10:50;31.70;90.40
48860;DHT22;34679;51.436;-2.518;2022-07-29T08:13:19;31.90;90.10
48860;DHT22;34679;51.436;-2.518;2022-07-29T08:15:45;31.20;90.60
48860;DHT22;34679;51.436;-2.518;2022-07-29T08:18:11;31.40;90.50
48860;DHT22;34679;51.436;-2.518;2022-07-29T08:20:37;31.20;90.60
48860;DHT22;34679;51.436;-2.518;2022-07-29T08:23:05;31.30;90.50
48860;DHT22;34679;51.436;-2.518;2022-07-29T08:25:31;31.50;89.50
48860;DHT22;34679;51.436;-2.518;2022-07-29T08:27:58;31.40;90.00
48860;DHT22;34679;51.436;-2.518;2022-07-29T08:30:23;29.90;90.40
48860;DHT22;34679;51.436;-2.518;2022-07-29T08:32:49;29.20;91.00
48860;DHT22;34679;51.436;-2.518;2022-07-29T08:35:18;29.00;90.80
48860;DHT22;34679;51.436;-2.518;2022-07-29T08:37:44;29.80;90.30
48860;DHT22;34679;51.436;-2.518;2022-07-29T08:40:09;30.40;89.90
48860;DHT22;34679;51.436;-2.518;2022-07-29T08:42:35;30.80;90.00
48860;DHT22;34679;51.436;-2.518;2022-07-29T08:45:01;31.00;88.30
48860;DHT22;34679;51.436;-2.518;2022-07-29T08:47:27;30.80;88.50
48860;DHT22;34679;51.436;-2.518;2022-07-29T08:49:52;31.00;89.50
48860;DHT22;34679;51.436;-2.518;2022-07-29T08:52:18;31.20;88.50
48860;DHT22;34679;51.436;-2.518;2022-07-29T08:54:45;32.20;87.60
48860;DHT22;34679;51.436;-2.518;2022-07-29T08:57:12;32.10;88.30
48860;DHT22;34679;51.436;-2.518;2022-07-29T08:59:38;32.10;88.10
48860;DHT22;34679;51.436;-2.518;2022-07-29T09:02:05;32.30;87.60
48860;DHT22;34679;51.436;-2.518;2022-07-29T09:04:33;31.90;87.50
48860;DHT22;34679;51.436;-2.518;2022-07-29T09:07:00;32.20;87.30
48860;DHT22;34679;51.436;-2.518;2022-07-29T09:09:27;32.30;87.00
48860;DHT22;34679;51.436;-2.518;2022-07-29T09:11:53;33.10;86.70
48860;DHT22;34679;51.436;-2.518;2022-07-29T09:14:19;32.90;85.90
48860;DHT22;34679;51.436;-2.518;2022-07-29T09:16:45;30.80;87.90
48860;DHT22;34679;51.436;-2.518;2022-07-29T09:19:32;31.70;87.30
48860;DHT22;34679;51.436;-2.518;2022-07-29T09:21:57;31.90;87.50
48860;DHT22;34679;51.436;-2.518;2022-07-29T09:24:23;32.20;87.50
48860;DHT22;34679;51.436;-2.518;2022-07-29T09:26:49;32.50;86.70
48860;DHT22;34679;51.436;-2.518;2022-07-29T09:29:19;33.00;87.60
48860;DHT22;34679;51.436;-2.518;2022-07-29T09:31:49;33.30;86.50
48860;DHT22;34679;51.436;-2.518;2022-07-29T09:34:25;32.80;86.80
48860;DHT22;34679;51.436;-2.518;2022-07-29T09:36:52;33.10;86.80
48860;DHT22;34679;51.436;-2.518;2022-07-29T09:39:36;32.50;86.30
48860;DHT22;34679;51.436;-2.518;2022-07-29T09:42:04;32.60;86.40
48860;DHT22;34679;51.436;-2.518;2022-07-29T09:44:46;33.40;85.00
48860;DHT22;34679;51.436;-2.518;2022-07-29T09:47:13;32.90;86.60
48860;DHT22;34679;51.436;-2.518;2022-07-29T09:50:00;32.60;86.10
48860;DHT22;34679;51.436;-2.518;2022-07-29T09:52:26;33.40;84.60
48860;DHT22;34679;51.436;-2.518;2022-07-29T09:54:51;32.70;85.00
48860;DHT22;34679;51.436;-2.518;2022-07-29T09:57:26;32.20;85.10
48860;DHT22;34679;51.436;-2.518;2022-07-29T09:59:55;32.40;84.30
48860;DHT22;34679;51.436;-2.518;2022-07-29T10:02:21;32.40;85.10
48860;DHT22;34679;51.436;-2.518;2022-07-29T10:04:47;32.20;84.90
48860;DHT22;34679;51.436;-2.518;2022-07-29T10:07:12;32.10;84.90
48860;DHT22;34679;51.436;-2.518;2022-07-29T10:09:38;32.70;85.60
48860;DHT22;34679;51.436;-2.518;2022-07-29T10:12:08;32.80;84.60
48860;DHT22;34679;51.436;-2.518;2022-07-29T10:14:35;32.90;85.10
48860;DHT22;34679;51.436;-2.518;2022-07-29T10:17:01;33.10;83.10
48860;DHT22;34679;51.436;-2.518;2022-07-29T10:19:30;32.10;83.50
48860;DHT22;34679;51.436;-2.518;2022-07-29T10:21:57;32.40;84.40
48860;DHT22;34679;51.436;-2.518;2022-07-29T10:24:26;32.80;83.00
48860;DHT22;34679;51.436;-2.518;2022-07-29T10:26:53;33.00;82.90
48860;DHT22;34679;51.436;-2.518;2022-07-29T10:29:19;33.20;82.30
48860;DHT22;34679;51.436;-2.518;2022-07-29T10:31:49;32.40;83.00
48860;DHT22;34679;51.436;-2.518;2022-07-29T10:34:20;31.10;83.40
48860;DHT22;34679;51.436;-2.518;2022-07-29T10:37:02;30.60;86.50
48860;DHT22;34679;51.436;-2.518;2022-07-29T10:39:42;30.30;84.70
48860;DHT22;34679;51.436;-2.518;2022-07-29T10:42:12;29.40;86.60
48860;DHT22;34679;51.436;-2.518;2022-07-29T10:44:39;29.00;87.10
48860;DHT22;34679;51.436;-2.518;2022-07-29T10:47:05;28.90;87.40
48860;DHT22;34679;51.436;-2.518;2022-07-29T10:49:31;28.40;88.20
48860;DHT22;34679;51.436;-2.518;2022-07-29T10:59:39;27.80;88.30
48860;DHT22;34679;51.436;-2.518;2022-07-29T11:07:14;27.40;89.00
48860;DHT22;34679;51.436;-2.518;2022-07-29T11:09:41;27.70;89.40
48860;DHT22;34679;51.436;-2.518;2022-07-29T11:17:17;27.50;88.40
48860;DHT22;34679;51.436;-2.518;2022-07-29T11:19:43;27.50;88.00
48860;DHT22;34679;51.436;-2.518;2022-07-29T11:22:10;27.30;88.90
48860;DHT22;34679;51.436;-2.518;2022-07-29T11:24:35;27.30;89.00
48860;DHT22;34679;51.436;-2.518;2022-07-29T11:29:40;27.30;88.40
48860;DHT22;34679;51.436;-2.518;2022-07-29T11:32:13;27.50;90.00
48860;DHT22;34679;51.436;-2.518;2022-07-29T11:34:45;27.70;88.90
48860;DHT22;34679;51.436;-2.518;2022-07-29T11:45:00;27.10;88.10
48860;DHT22;34679;51.436;-2.518;2022-07-29T11:47:26;27.00;86.80
48860;DHT22;34679;51.436;-2.518;2022-07-29T11:49:52;26.80;87.30
48860;DHT22;34679;51.436;-2.518;2022-07-29T11:52:19;26.70;86.80
48860;DHT22;34679;51.436;-2.518;2022-07-29T11:54:44;26.80;88.70
48860;DHT22;34679;51.436;-2.518;2022-07-29T11:57:12;27.00;87.70
48860;DHT22;34679;51.436;-2.518;2022-07-29T11:59:39;27.20;88.10
48860;DHT22;34679;51.436;-2.518;2022-07-29T12:02:05;27.50;87.00
48860;DHT22;34679;51.436;-2.518;2022-07-29T12:04:30;27.60;86.90
48860;DHT22;34679;51.436;-2.518;2022-07-29T12:06:56;27.50;86.10
48860;DHT22;34679;51.436;-2.518;2022-07-29T12:09:22;27.60;87.20
48860;DHT22;34679;51.436;-2.518;2022-07-29T12:11:47;27.70;86.80
48860;DHT22;34679;51.436;-2.518;2022-07-29T12:14:26;27.80;87.50
48860;DHT22;34679;51.436;-2.518;2022-07-29T12:16:52;28.10;87.80
48860;DHT22;34679;51.436;-2.518;2022-07-29T12:19:17;28.00;86.10
48860;DHT22;34679;51.436;-2.518;2022-07-29T12:21:46;28.10;85.80
48860;DHT22;34679;51.436;-2.518;2022-07-29T12:24:13;28.20;85.80
48860;DHT22;34679;51.436;-2.518;2022-07-29T12:26:54;28.20;87.50
48860;DHT22;34679;51.436;-2.518;2022-07-29T12:29:20;28.10;86.00
48860;DHT22;34679;51.436;-2.518;2022-07-29T12:31:46;28.20;85.10
48860;DHT22;34679;51.436;-2.518;2022-07-29T12:34:12;28.10;86.50
48860;DHT22;34679;51.436;-2.518;2022-07-29T12:36:38;28.00;86.30
48860;DHT22;34679;51.436;-2.518;2022-07-29T12:39:04;28.10;87.60
48860;DHT22;34679;51.436;-2.518;2022-07-29T12:41:29;27.90;85.80
48860;DHT22;34679;51.436;-2.518;2022-07-29T12:43:55;27.90;85.30
48860;DHT22;34679;51.436;-2.518;2022-07-29T12:46:21;27.90;87.00
48860;DHT22;34679;51.436;-2.518;2022-07-29T12:48:50;28.10;86.60
48860;DHT22;34679;51.436;-2.518;2022-07-29T12:51:15;28.10;86.90
48860;DHT22;34679;51.436;-2.518;2022-07-29T12:54:00;28.40;85.40
48860;DHT22;34679;51.436;-2.518;2022-07-29T12:56:26;28.50;84.60
48860;DHT22;34679;51.436;-2.518;2022-07-29T12:58:52;28.40;85.60
48860;DHT22;34679;51.436;-2.518;2022-07-29T13:01:17;28.10;86.00
48860;DHT22;34679;51.436;-2.518;2022-07-29T13:08:58;28.30;84.40
48860;DHT22;34679;51.436;-2.518;2022-07-29T13:11:27;28.10;83.90
48860;DHT22;34679;51.436;-2.518;2022-07-29T13:13:53;28.10;86.30
48860;DHT22;34679;51.436;-2.518;2022-07-29T13:16:18;28.10;84.20
48860;DHT22;34679;51.436;-2.518;2022-07-29T13:18:44;27.60;85.30
48860;DHT22;34679;51.436;-2.518;2022-07-29T13:21:10;27.50;85.60
48860;DHT22;34679;51.436;-2.518;2022-07-29T13:23:37;27.40;86.60
48860;DHT22;34679;51.436;-2.518;2022-07-29T13:26:09;27.70;85.40
48860;DHT22;34679;51.436;-2.518;2022-07-29T13:28:36;28.00;86.00
48860;DHT22;34679;51.436;-2.518;2022-07-29T13:31:02;28.40;86.90
48860;DHT22;34679;51.436;-2.518;2022-07-29T13:33:28;28.80;86.30
48860;DHT22;34679;51.436;-2.518;2022-07-29T13:35:54;28.70;84.80
48860;DHT22;34679;51.436;-2.518;2022-07-29T13:38:19;28.80;85.70
48860;DHT22;34679;51.436;-2.518;2022-07-29T13:40:45;28.70;85.10
48860;DHT22;34679;51.436;-2.518;2022-07-29T13:43:10;28.90;85.40
48860;DHT22;34679;51.436;-2.518;2022-07-29T13:45:36;29.10;84.70
48860;DHT22;34679;51.436;-2.518;2022-07-29T13:48:02;29.10;84.50
48860;DHT22;34679;51.436;-2.518;2022-07-29T13:50:27;29.30;83.90
48860;DHT22;34679;51.436;-2.518;2022-07-29T13:52:53;29.30;82.20
48860;DHT22;34679;51.436;-2.518;2022-07-29T13:55:19;29.00;82.40
48860;DHT22;34679;51.436;-2.518;2022-07-29T13:57:44;28.70;82.10
48860;DHT22;34679;51.436;-2.518;2022-07-29T14:00:10;28.30;82.60
48860;DHT22;34679;51.436;-2.518;2022-07-29T14:02:36;28.20;83.00
48860;DHT22;34679;51.436;-2.518;2022-07-29T14:05:04;28.00;83.30
48860;DHT22;34679;51.436;-2.518;2022-07-29T14:07:29;28.20;83.80
48860;DHT22;34679;51.436;-2.518;2022-07-29T14:09:55;28.30;83.20
48860;DHT22;34679;51.436;-2.518;2022-07-29T14:12:21;28.50;83.50
48860;DHT22;34679;51.436;-2.518;2022-07-29T14:14:46;28.60;83.70
48860;DHT22;34679;51.436;-2.518;2022-07-29T14:17:12;28.80;83.20
48860;DHT22;34679;51.436;-2.518;2022-07-29T14:19:37;28.80;83.00
48860;DHT22;34679;51.436;-2.518;2022-07-29T14:22:04;28.70;83.60
48860;DHT22;34679;51.436;-2.518;2022-07-29T14:24:50;28.80;83.70
48860;DHT22;34679;51.436;-2.518;2022-07-29T14:27:15;28.90;83.00
48860;DHT22;34679;51.436;-2.518;2022-07-29T14:29:41;29.00;83.80
48860;DHT22;34679;51.436;-2.518;2022-07-29T14:32:07;29.30;83.20
48860;DHT22;34679;51.436;-2.518;2022-07-29T14:34:33;29.40;82.40
48860;DHT22;34679;51.436;-2.518;2022-07-29T14:36:59;29.50;81.20
48860;DHT22;34679;51.436;-2.518;2022-07-29T14:39:25;29.40;81.40
48860;DHT22;34679;51.436;-2.518;2022-07-29T14:41:51;29.30;82.00
48860;DHT22;34679;51.436;-2.518;2022-07-29T14:44:17;29.30;81.90
48860;DHT22;34679;51.436;-2.518;2022-07-29T14:46:43;29.40;82.60
48860;DHT22;34679;51.436;-2.518;2022-07-29T14:49:09;29.30;82.60
48860;DHT22;34679;51.436;-2.518;2022-07-29T14:51:34;29.50;81.10
48860;DHT22;34679;51.436;-2.518;2022-07-29T14:54:00;29.50;80.90
48860;DHT22;34679;51.436;-2.518;2022-07-29T14:56:25;29.40;81.10
48860;DHT22;34679;51.436;-2.518;2022-07-29T14:58:52;29.00;83.20
48860;DHT22;34679;51.436;-2.518;2022-07-29T15:01:17;29.00;84.20
48860;DHT22;34679;51.436;-2.518;2022-07-29T15:03:44;29.00;83.00
48860;DHT22;34679;51.436;-2.518;2022-07-29T15:06:10;29.10;83.40
48860;DHT22;34679;51.436;-2.518;2022-07-29T15:08:37;29.00;83.10
48860;DHT22;34679;51.436;-2.518;2022-07-29T15:11:03;28.80;86.10
48860;DHT22;34679;51.436;-2.518;2022-07-29T15:13:29;28.60;88.00
48860;DHT22;34679;51.436;-2.518;2022-07-29T15:15:54;28.30;88.70
48860;DHT22;34679;51.436;-2.518;2022-07-29T15:18:20;28.20;89.40
48860;DHT22;34679;51.436;-2.518;2022-07-29T15:20:45;28.00;89.00
48860;DHT22;34679;51.436;-2.518;2022-07-29T15:23:11;27.80;90.20
48860;DHT22;34679;51.436;-2.518;2022-07-29T15:25:38;27.80;89.80
48860;DHT22;34679;51.436;-2.518;2022-07-29T15:28:04;27.70;90.00
48860;DHT22;34679;51.436;-2.518;2022-07-29T15:30:33;27.90;90.30
48860;DHT22;34679;51.436;-2.518;2022-07-29T15:33:00;28.10;90.10
48860;DHT22;34679;51.436;-2.518;2022-07-29T15:35:26;28.10;90.00
48860;DHT22;34679;51.436;-2.518;2022-07-29T15:37:52;28.00;90.00
48860;DHT22;34679;51.436;-2.518;2022-07-29T15:40:17;27.90;89.80
48860;DHT22;34679;51.436;-2.518;2022-07-29T15:42:43;27.90;90.20
48860;DHT22;34679;51.436;-2.518;2022-07-29T15:45:08;27.90;90.10
48860;DHT22;34679;51.436;-2.518;2022-07-29T15:47:34;28.00;90.40
48860;DHT22;34679;51.436;-2.518;2022-07-29T15:50:00;28.10;90.20
48860;DHT22;34679;51.436;-2.518;2022-07-29T15:52:26;28.20;89.70